createdAt,value
2022-09-29T00:00:19.539Z,6.77
2022-09-29T00:00:40.238Z,6.77
2022-09-29T00:01:06.392Z,6.77
2022-09-29T00:01:38.912Z,6.77
2022-09-29T00:02:10.489Z,6.77
2022-09-29T00:02:40.118Z,7.00
2022-09-29T00:02:59.410Z,7.00
2022-09-29T00:03:30.255Z,6.77
2022-09-29T00:03:47.472Z,6.77
2022-09-29T00:04:19.026Z,6.77
2022-09-29T00:04:40.084Z,6.77
2022-09-29T00:05:06.549Z,6.72
2022-09-29T00:05:38.882Z,6.88
2022-09-29T00:06:10.406Z,6.88
2022-09-29T00:06:40.105Z,6.88
2022-09-29T00:06:58.885Z,6.88
2022-09-29T00:07:30.319Z,6.88
2022-09-29T00:07:47.605Z,6.88
2022-09-29T00:08:18.982Z,6.88
2022-09-29T00:08:40.114Z,6.88
2022-09-29T00:09:06.573Z,6.88
2022-09-29T00:09:38.868Z,6.88
2022-09-29T00:10:10.975Z,6.88
2022-09-29T00:10:40.093Z,6.88
2022-09-29T00:10:58.914Z,6.88
2022-09-29T00:11:30.309Z,6.88
2022-09-29T00:11:47.617Z,6.88
2022-09-29T00:12:18.879Z,6.88
2022-09-29T00:12:40.024Z,6.88
2022-09-29T00:13:06.690Z,6.88
2022-09-29T00:13:38.880Z,6.77
2022-09-29T00:14:10.362Z,6.77
2022-09-29T00:14:41.385Z,6.77
2022-09-29T00:14:58.912Z,6.77
2022-09-29T00:15:30.428Z,6.77
2022-09-29T00:15:47.598Z,6.77
2022-09-29T00:16:19.450Z,6.77
2022-09-29T00:16:40.165Z,6.77
2022-09-29T00:17:06.445Z,6.77
2022-09-29T00:17:38.813Z,6.72
2022-09-29T00:18:14.160Z,6.72
2022-09-29T00:18:40.114Z,6.72
2022-09-29T00:18:59.036Z,6.77
2022-09-29T00:19:30.349Z,6.77
2022-09-29T00:19:47.602Z,6.77
2022-09-29T00:20:19.199Z,6.88
2022-09-29T00:20:40.143Z,6.88
2022-09-29T00:21:06.439Z,6.88
2022-09-29T00:21:39.038Z,7.00
2022-09-29T00:22:10.334Z,7.00
2022-09-29T00:22:40.114Z,7.00
2022-09-29T00:22:58.940Z,6.88
2022-09-29T00:23:30.502Z,6.77
2022-09-29T00:23:47.765Z,6.77
2022-09-29T00:24:19.117Z,7.00
2022-09-29T00:24:40.124Z,7.00
2022-09-29T00:25:06.587Z,7.00
2022-09-29T00:25:38.871Z,6.88
2022-09-29T00:26:10.488Z,6.88
2022-09-29T00:26:40.115Z,6.88
2022-09-29T00:26:59.095Z,6.88
2022-09-29T00:27:30.753Z,6.88
2022-09-29T00:27:47.618Z,6.88
2022-09-29T00:28:19.093Z,6.88
2022-09-29T00:28:40.159Z,6.77
2022-09-29T00:29:06.426Z,6.77
2022-09-29T00:29:38.995Z,6.88
2022-09-29T00:30:10.867Z,6.88
2022-09-29T00:30:40.147Z,6.88
2022-09-29T00:30:58.899Z,6.88
2022-09-29T00:31:30.610Z,6.88
2022-09-29T00:31:48.025Z,6.88
2022-09-29T00:32:18.993Z,6.88
2022-09-29T00:32:40.098Z,6.88
2022-09-29T00:33:06.390Z,6.88
2022-09-29T00:33:38.813Z,6.88
2022-09-29T00:34:10.349Z,6.88
2022-09-29T00:34:40.141Z,6.88
2022-09-29T00:34:59.419Z,6.88
2022-09-29T00:35:30.922Z,6.88
2022-09-29T00:35:48.477Z,6.88
2022-09-29T00:36:19.032Z,6.88
2022-09-29T00:36:40.072Z,6.88
2022-09-29T00:37:06.417Z,6.88
2022-09-29T00:37:38.802Z,6.88
2022-09-29T00:38:10.413Z,6.88
2022-09-29T00:38:40.093Z,6.88
2022-09-29T00:38:59.087Z,7.00
2022-09-29T00:39:30.123Z,7.00
2022-09-29T00:39:47.279Z,7.00
2022-09-29T00:40:19.578Z,7.00
2022-09-29T00:40:40.188Z,7.00
2022-09-29T00:41:06.416Z,7.00
2022-09-29T00:41:38.868Z,7.11
2022-09-29T00:42:10.878Z,7.11
2022-09-29T00:42:40.110Z,7.11
2022-09-29T00:42:58.919Z,7.11
2022-09-29T00:43:30.322Z,7.11
2022-09-29T00:43:48.175Z,7.11
2022-09-29T00:44:18.916Z,7.22
2022-09-29T00:44:40.151Z,7.22
2022-09-29T00:45:06.565Z,7.22
2022-09-29T00:45:40.194Z,7.22
2022-09-29T00:46:10.372Z,7.22
2022-09-29T00:46:40.179Z,7.22
2022-09-29T00:46:58.892Z,7.22
2022-09-29T00:47:30.284Z,7.22
2022-09-29T00:47:47.647Z,7.22
2022-09-29T00:48:19.018Z,7.22
2022-09-29T00:48:40.147Z,7.22
2022-09-29T00:49:06.399Z,7.22
2022-09-29T00:49:38.815Z,7.22
2022-09-29T00:50:10.317Z,7.22
2022-09-29T00:50:40.690Z,7.22
2022-09-29T00:50:58.887Z,7.22
2022-09-29T00:51:30.289Z,7.22
2022-09-29T00:51:47.603Z,7.22
2022-09-29T00:52:19.101Z,7.11
2022-09-29T00:52:40.090Z,7.00
2022-09-29T00:53:06.154Z,7.00
2022-09-29T00:53:38.793Z,7.00
2022-09-29T00:54:10.309Z,7.00
2022-09-29T00:54:40.146Z,7.00
2022-09-29T00:54:58.920Z,7.00
2022-09-29T00:55:30.458Z,7.11
2022-09-29T00:55:49.412Z,7.11
2022-09-29T00:56:18.932Z,7.11
2022-09-29T00:56:40.132Z,7.11
2022-09-29T00:57:06.423Z,7.11
2022-09-29T00:57:38.928Z,7.00
2022-09-29T00:58:10.427Z,7.00
2022-09-29T00:58:40.130Z,7.00
2022-09-29T00:58:58.843Z,7.00
2022-09-29T00:59:30.521Z,7.00
2022-09-29T00:59:47.936Z,7.00
2022-09-29T01:00:19.007Z,7.11
2022-09-29T01:00:40.279Z,7.11
2022-09-29T01:01:06.609Z,7.22
2022-09-29T01:01:38.844Z,7.11
2022-09-29T01:02:10.540Z,7.11
2022-09-29T01:02:40.107Z,7.11
2022-09-29T01:02:58.923Z,7.22
2022-09-29T01:03:30.329Z,7.22
2022-09-29T01:03:47.611Z,7.22
2022-09-29T01:04:19.203Z,7.22
2022-09-29T01:04:40.188Z,7.22
2022-09-29T01:05:06.469Z,7.22
2022-09-29T01:05:38.823Z,7.22
2022-09-29T01:06:11.228Z,7.22
2022-09-29T01:06:40.200Z,7.22
2022-09-29T01:06:58.806Z,7.22
2022-09-29T01:07:30.366Z,7.22
2022-09-29T01:07:47.826Z,7.22
2022-09-29T01:08:19.015Z,7.22
2022-09-29T01:08:40.199Z,7.22
2022-09-29T01:09:06.771Z,7.22
2022-09-29T01:09:39.370Z,7.22
2022-09-29T01:10:10.360Z,7.22
2022-09-29T01:10:40.151Z,7.22
2022-09-29T01:10:58.931Z,7.22
2022-09-29T01:11:30.356Z,7.22
2022-09-29T01:11:47.619Z,7.22
2022-09-29T01:12:19.166Z,7.22
2022-09-29T01:12:40.299Z,7.22
2022-09-29T01:13:06.657Z,7.22
2022-09-29T01:13:38.807Z,7.22
2022-09-29T01:14:10.414Z,7.22
2022-09-29T01:14:40.549Z,7.22
2022-09-29T01:14:59.047Z,7.22
2022-09-29T01:15:30.494Z,7.22
2022-09-29T01:15:48.250Z,7.22
2022-09-29T01:16:19.372Z,7.22
2022-09-29T01:16:40.225Z,7.22
2022-09-29T01:17:06.407Z,7.11
2022-09-29T01:17:38.842Z,7.11
2022-09-29T01:18:10.686Z,7.11
2022-09-29T01:18:40.140Z,7.11
2022-09-29T01:18:59.020Z,7.11
2022-09-29T01:19:30.331Z,7.11
2022-09-29T01:19:47.492Z,7.11
2022-09-29T01:20:18.876Z,7.11
2022-09-29T01:20:40.189Z,7.11
2022-09-29T01:21:06.376Z,7.11
2022-09-29T01:21:39.087Z,7.11
2022-09-29T01:22:10.332Z,7.11
2022-09-29T01:22:40.182Z,7.11
2022-09-29T01:22:58.849Z,7.11
2022-09-29T01:23:30.362Z,7.11
2022-09-29T01:23:47.443Z,7.11
2022-09-29T01:24:18.927Z,7.11
2022-09-29T01:24:40.142Z,7.11
2022-09-29T01:25:06.657Z,7.22
2022-09-29T01:25:38.710Z,7.11
2022-09-29T01:26:10.395Z,7.11
2022-09-29T01:26:40.121Z,7.11
2022-09-29T01:26:58.696Z,7.22
2022-09-29T01:27:30.374Z,7.22
2022-09-29T01:27:47.432Z,7.22
2022-09-29T01:28:18.791Z,7.22
2022-09-29T01:28:40.164Z,7.11
2022-09-29T01:29:06.377Z,7.22
2022-09-29T01:29:38.680Z,7.22
2022-09-29T01:30:10.456Z,7.11
2022-09-29T01:30:39.963Z,7.11
2022-09-29T01:30:58.538Z,7.11
2022-09-29T01:31:30.803Z,7.11
2022-09-29T01:31:48.387Z,7.11
2022-09-29T01:32:18.616Z,7.11
2022-09-29T01:32:40.123Z,7.11
2022-09-29T01:33:06.307Z,7.11
2022-09-29T01:33:38.700Z,7.11
2022-09-29T01:34:10.304Z,7.00
2022-09-29T01:34:40.111Z,7.00
2022-09-29T01:34:58.924Z,7.11
2022-09-29T01:35:31.277Z,7.11
2022-09-29T01:35:47.904Z,7.11
2022-09-29T01:36:18.878Z,7.11
2022-09-29T01:36:40.118Z,7.11
2022-09-29T01:37:06.473Z,7.11
2022-09-29T01:37:38.643Z,7.11
2022-09-29T01:38:10.397Z,7.11
2022-09-29T01:38:40.069Z,7.11
2022-09-29T01:38:58.814Z,7.11
2022-09-29T01:39:30.360Z,7.11
2022-09-29T01:39:47.405Z,7.11
2022-09-29T01:40:18.966Z,7.11
2022-09-29T01:40:40.256Z,7.11
2022-09-29T01:41:06.290Z,7.11
2022-09-29T01:41:39.150Z,7.11
2022-09-29T01:42:10.528Z,7.11
2022-09-29T01:42:40.101Z,7.11
2022-09-29T01:42:58.596Z,7.11
2022-09-29T01:43:30.298Z,7.11
2022-09-29T01:43:47.435Z,7.11
2022-09-29T01:44:18.751Z,7.11
2022-09-29T01:44:40.142Z,7.11
2022-09-29T01:45:06.403Z,7.11
2022-09-29T01:45:43.243Z,7.11
2022-09-29T01:46:10.522Z,7.11
2022-09-29T01:46:40.824Z,7.11
2022-09-29T01:46:58.661Z,7.11
2022-09-29T01:47:30.506Z,7.11
2022-09-29T01:47:47.400Z,7.11
2022-09-29T01:48:18.825Z,7.11
2022-09-29T01:48:40.075Z,7.11
2022-09-29T01:49:06.393Z,7.11
2022-09-29T01:49:38.776Z,7.11
2022-09-29T01:50:10.345Z,7.11
2022-09-29T01:50:40.118Z,7.11
2022-09-29T01:50:58.821Z,7.11
2022-09-29T01:51:30.384Z,7.11
2022-09-29T01:51:48.335Z,7.11
2022-09-29T01:52:19.031Z,7.11
2022-09-29T01:52:40.118Z,7.00
2022-09-29T01:53:06.366Z,7.00
2022-09-29T01:53:38.703Z,7.00
2022-09-29T01:54:10.456Z,7.00
2022-09-29T01:54:40.280Z,7.00
2022-09-29T01:54:59.293Z,7.00
2022-09-29T01:55:30.372Z,7.11
2022-09-29T01:55:47.571Z,7.00
2022-09-29T01:56:18.823Z,7.00
2022-09-29T01:56:40.085Z,7.11
2022-09-29T01:57:06.380Z,7.11
2022-09-29T01:57:38.824Z,7.11
2022-09-29T01:58:10.548Z,7.11
2022-09-29T01:58:40.110Z,7.11
2022-09-29T01:58:58.686Z,7.11
2022-09-29T01:59:30.275Z,7.11
2022-09-29T01:59:47.491Z,7.11
2022-09-29T02:00:18.820Z,7.11
2022-09-29T02:00:40.199Z,7.11
2022-09-29T02:01:06.638Z,7.00
2022-09-29T02:01:38.833Z,7.00
2022-09-29T02:02:11.211Z,7.00
2022-09-29T02:02:40.190Z,7.00
2022-09-29T02:02:58.934Z,7.00
2022-09-29T02:03:30.360Z,7.00
2022-09-29T02:03:47.499Z,7.00
2022-09-29T02:04:18.727Z,7.00
2022-09-29T02:04:40.178Z,7.00
2022-09-29T02:05:06.332Z,7.00
2022-09-29T02:05:38.638Z,7.00
2022-09-29T02:06:10.317Z,7.00
2022-09-29T02:06:40.137Z,7.00
2022-09-29T02:06:58.644Z,7.00
2022-09-29T02:07:30.333Z,6.88
2022-09-29T02:07:47.418Z,6.88
2022-09-29T02:08:21.466Z,6.88
2022-09-29T02:08:40.097Z,6.88
2022-09-29T02:09:06.435Z,6.88
2022-09-29T02:09:38.698Z,6.77
2022-09-29T02:10:10.364Z,6.77
2022-09-29T02:10:40.145Z,6.77
2022-09-29T02:10:58.594Z,6.77
2022-09-29T02:11:30.355Z,6.72
2022-09-29T02:11:49.124Z,6.72
2022-09-29T02:12:19.247Z,6.72
2022-09-29T02:12:40.069Z,6.72
2022-09-29T02:13:06.617Z,6.61
2022-09-29T02:13:38.582Z,6.61
2022-09-29T02:14:10.344Z,6.61
2022-09-29T02:14:40.112Z,6.61
2022-09-29T02:14:58.764Z,6.61
2022-09-29T02:15:30.562Z,6.61
2022-09-29T02:15:47.939Z,6.61
2022-09-29T02:16:18.951Z,6.72
2022-09-29T02:16:40.971Z,6.72
2022-09-29T02:17:06.503Z,6.61
2022-09-29T02:17:38.883Z,6.72
2022-09-29T02:18:10.963Z,6.72
2022-09-29T02:18:40.116Z,6.72
2022-09-29T02:18:58.823Z,6.72
2022-09-29T02:19:30.341Z,6.72
2022-09-29T02:19:49.108Z,6.72
2022-09-29T02:20:18.916Z,6.77
2022-09-29T02:20:40.112Z,6.77
2022-09-29T02:21:06.317Z,6.77
2022-09-29T02:21:38.768Z,6.77
2022-09-29T02:22:10.429Z,6.77
2022-09-29T02:22:40.100Z,6.77
2022-09-29T02:22:58.673Z,6.77
2022-09-29T02:23:30.423Z,6.77
2022-09-29T02:23:47.849Z,6.72
2022-09-29T02:24:18.960Z,6.72
2022-09-29T02:24:40.126Z,6.72
2022-09-29T02:25:06.412Z,6.72
2022-09-29T02:25:38.712Z,6.72
2022-09-29T02:26:10.543Z,6.72
2022-09-29T02:26:40.304Z,6.72
2022-09-29T02:26:58.921Z,6.72
2022-09-29T02:27:30.339Z,6.72
2022-09-29T02:27:47.504Z,6.72
2022-09-29T02:28:19.529Z,6.72
2022-09-29T02:28:40.515Z,6.77
2022-09-29T02:29:06.409Z,6.77
2022-09-29T02:29:38.661Z,6.77
2022-09-29T02:30:10.752Z,6.77
2022-09-29T02:30:40.275Z,6.77
2022-09-29T02:30:58.901Z,6.77
2022-09-29T02:31:30.415Z,6.77
2022-09-29T02:31:47.529Z,6.72
2022-09-29T02:32:18.821Z,6.77
2022-09-29T02:32:40.158Z,6.77
2022-09-29T02:33:06.373Z,6.77
2022-09-29T02:33:38.646Z,6.77
2022-09-29T02:34:10.317Z,6.77
2022-09-29T02:34:40.158Z,6.77
2022-09-29T02:34:58.705Z,6.77
2022-09-29T02:35:30.468Z,6.77
2022-09-29T02:35:47.545Z,6.77
2022-09-29T02:36:18.621Z,6.77
2022-09-29T02:36:40.150Z,6.88
2022-09-29T02:37:06.383Z,6.88
2022-09-29T02:37:38.853Z,6.88
2022-09-29T02:38:10.339Z,6.72
2022-09-29T02:38:40.110Z,6.77
2022-09-29T02:38:58.943Z,6.77
2022-09-29T02:39:30.243Z,6.77
2022-09-29T02:39:47.354Z,6.77
2022-09-29T02:40:18.470Z,6.77
2022-09-29T02:40:40.358Z,6.77
2022-09-29T02:41:06.598Z,6.72
2022-09-29T02:41:38.737Z,6.77
2022-09-29T02:42:10.352Z,6.77
2022-09-29T02:42:40.236Z,6.72
2022-09-29T02:42:58.576Z,6.72
2022-09-29T02:43:30.996Z,6.72
2022-09-29T02:44:02.295Z,6.72
2022-09-29T02:44:34.330Z,6.72
2022-09-29T02:45:06.459Z,6.72
2022-09-29T02:45:38.692Z,6.61
2022-09-29T02:46:10.492Z,6.72
2022-09-29T02:46:40.127Z,6.72
2022-09-29T02:46:58.628Z,6.61
2022-09-29T02:47:30.313Z,6.61
2022-09-29T02:47:47.399Z,6.61
2022-09-29T02:48:18.636Z,6.61
2022-09-29T02:48:40.129Z,6.61
2022-09-29T02:49:06.261Z,6.61
2022-09-29T02:49:38.591Z,6.61
2022-09-29T02:50:10.360Z,6.61
2022-09-29T02:50:40.120Z,6.72
2022-09-29T02:50:58.684Z,6.72
2022-09-29T02:51:30.321Z,6.72
2022-09-29T02:51:47.392Z,6.72
2022-09-29T02:52:18.561Z,6.72
2022-09-29T02:52:40.140Z,6.77
2022-09-29T02:53:06.420Z,6.88
2022-09-29T02:53:39.193Z,6.88
2022-09-29T02:54:10.362Z,6.88
2022-09-29T02:54:40.140Z,6.88
2022-09-29T02:54:58.624Z,6.88
2022-09-29T02:55:30.320Z,6.77
2022-09-29T02:55:47.335Z,6.77
2022-09-29T02:56:18.772Z,6.77
2022-09-29T02:56:40.263Z,6.77
2022-09-29T02:57:06.437Z,6.77
2022-09-29T02:57:38.710Z,6.72
2022-09-29T02:58:10.750Z,6.72
2022-09-29T02:58:43.023Z,6.72
2022-09-29T02:58:58.746Z,6.72
2022-09-29T02:59:30.321Z,6.72
2022-09-29T02:59:47.421Z,6.72
2022-09-29T03:00:18.670Z,6.72
2022-09-29T03:00:40.303Z,6.72
2022-09-29T03:01:06.453Z,6.72
2022-09-29T03:01:38.437Z,6.72
2022-09-29T03:02:10.349Z,6.72
2022-09-29T03:02:40.188Z,6.72
2022-09-29T03:02:58.836Z,6.72
2022-09-29T03:03:30.310Z,6.72
2022-09-29T03:03:48.099Z,6.72
2022-09-29T03:04:18.691Z,6.72
2022-09-29T03:04:40.199Z,6.61
2022-09-29T03:05:06.761Z,6.61
2022-09-29T03:05:38.659Z,6.61
2022-09-29T03:06:10.310Z,6.61
2022-09-29T03:06:40.160Z,6.61
2022-09-29T03:07:00.265Z,6.50
2022-09-29T03:07:30.482Z,6.50
2022-09-29T03:07:47.594Z,6.50
2022-09-29T03:08:18.700Z,6.50
2022-09-29T03:08:40.125Z,6.50
2022-09-29T03:09:06.533Z,6.50
2022-09-29T03:09:38.785Z,6.50
2022-09-29T03:10:10.411Z,6.50
2022-09-29T03:10:40.123Z,6.50
2022-09-29T03:10:58.643Z,6.61
2022-09-29T03:11:30.392Z,6.61
2022-09-29T03:11:47.791Z,6.61
2022-09-29T03:12:18.813Z,6.61
2022-09-29T03:12:40.155Z,6.61
2022-09-29T03:13:06.808Z,6.61
2022-09-29T03:13:38.530Z,6.61
2022-09-29T03:14:11.228Z,6.61
2022-09-29T03:14:40.154Z,6.61
2022-09-29T03:14:58.536Z,6.61
2022-09-29T03:15:30.342Z,6.61
2022-09-29T03:15:47.621Z,6.61
2022-09-29T03:16:18.782Z,6.72
2022-09-29T03:16:40.221Z,6.72
2022-09-29T03:17:06.343Z,6.72
2022-09-29T03:17:38.714Z,6.77
2022-09-29T03:18:10.585Z,6.77
2022-09-29T03:18:40.145Z,6.77
2022-09-29T03:18:58.888Z,6.77
2022-09-29T03:19:30.332Z,6.72
2022-09-29T03:19:47.392Z,6.72
2022-09-29T03:20:18.684Z,6.72
2022-09-29T03:20:40.300Z,6.72
2022-09-29T03:21:06.352Z,6.72
2022-09-29T03:21:38.518Z,6.72
2022-09-29T03:22:10.471Z,6.72
2022-09-29T03:22:40.140Z,6.61
2022-09-29T03:22:58.573Z,6.61
2022-09-29T03:23:30.433Z,6.61
2022-09-29T03:23:47.427Z,6.61
2022-09-29T03:24:19.489Z,6.61
2022-09-29T03:24:40.153Z,6.61
2022-09-29T03:25:06.412Z,6.61
2022-09-29T03:25:38.662Z,6.61
2022-09-29T03:26:10.307Z,6.61
2022-09-29T03:26:40.189Z,6.61
2022-09-29T03:26:58.493Z,6.50
2022-09-29T03:27:30.297Z,6.50
2022-09-29T03:27:47.392Z,6.50
2022-09-29T03:28:18.570Z,6.50
2022-09-29T03:28:40.169Z,6.50
2022-09-29T03:29:11.000Z,6.50
2022-09-29T03:29:38.495Z,6.50
2022-09-29T03:30:10.699Z,6.50
2022-09-29T03:30:40.124Z,6.50
2022-09-29T03:30:59.685Z,6.50
2022-09-29T03:31:30.362Z,6.38
2022-09-29T03:31:47.485Z,6.38
2022-09-29T03:32:18.591Z,6.38
2022-09-29T03:32:40.119Z,6.38
2022-09-29T03:33:06.336Z,6.38
2022-09-29T03:33:38.486Z,6.38
2022-09-29T03:34:10.306Z,6.38
2022-09-29T03:34:40.161Z,6.38
2022-09-29T03:34:58.583Z,6.27
2022-09-29T03:35:30.303Z,6.27
2022-09-29T03:35:47.425Z,6.27
2022-09-29T03:36:18.538Z,6.27
2022-09-29T03:36:40.132Z,6.22
2022-09-29T03:37:06.289Z,6.22
2022-09-29T03:37:38.668Z,6.22
2022-09-29T03:38:10.321Z,6.22
2022-09-29T03:38:40.116Z,6.22
2022-09-29T03:38:58.625Z,6.22
2022-09-29T03:39:31.371Z,6.22
2022-09-29T03:40:03.476Z,6.22
2022-09-29T03:40:34.290Z,6.11
2022-09-29T03:41:06.330Z,6.11
2022-09-29T03:41:38.776Z,6.11
2022-09-29T03:42:10.319Z,6.22
2022-09-29T03:42:40.154Z,6.22
2022-09-29T03:42:58.744Z,6.22
2022-09-29T03:43:30.412Z,6.22
2022-09-29T03:43:47.683Z,6.22
2022-09-29T03:44:18.509Z,6.22
2022-09-29T03:44:40.493Z,6.22
2022-09-29T03:45:06.389Z,6.22
2022-09-29T03:45:38.786Z,6.22
2022-09-29T03:46:10.492Z,6.22
2022-09-29T03:46:40.078Z,6.22
2022-09-29T03:46:58.514Z,6.11
2022-09-29T03:47:30.385Z,6.11
2022-09-29T03:47:47.657Z,6.11
2022-09-29T03:48:22.977Z,6.11
2022-09-29T03:48:40.219Z,6.11
2022-09-29T03:49:06.320Z,6.11
2022-09-29T03:49:39.368Z,6.11
2022-09-29T03:50:10.365Z,6.11
2022-09-29T03:50:40.237Z,6.11
2022-09-29T03:50:58.470Z,6.11
2022-09-29T03:51:30.426Z,6.11
2022-09-29T03:51:47.299Z,6.11
2022-09-29T03:52:18.732Z,6.11
2022-09-29T03:52:40.181Z,6.11
2022-09-29T03:53:06.350Z,6.11
2022-09-29T03:53:38.425Z,6.11
2022-09-29T03:54:10.391Z,6.11
2022-09-29T03:54:40.952Z,6.11
2022-09-29T03:54:58.422Z,6.11
2022-09-29T03:55:30.269Z,6.11
2022-09-29T03:55:47.355Z,6.11
2022-09-29T03:56:18.481Z,6.11
2022-09-29T03:56:40.181Z,6.11
2022-09-29T03:57:06.312Z,6.11
2022-09-29T03:57:38.395Z,6.27
2022-09-29T03:58:10.309Z,6.22
2022-09-29T03:58:40.212Z,6.22
2022-09-29T03:58:58.397Z,6.22
2022-09-29T03:59:30.313Z,6.22
2022-09-29T03:59:48.177Z,6.22
2022-09-29T04:00:18.934Z,6.22
2022-09-29T04:00:40.178Z,6.22
2022-09-29T04:01:06.478Z,6.22
2022-09-29T04:01:38.546Z,6.22
2022-09-29T04:02:10.373Z,6.11
2022-09-29T04:02:40.112Z,6.11
2022-09-29T04:02:58.553Z,6.11
2022-09-29T04:03:30.321Z,6.11
2022-09-29T04:03:47.600Z,6.11
2022-09-29T04:04:18.396Z,6.11
2022-09-29T04:04:40.211Z,6.11
2022-09-29T04:05:06.378Z,6.11
2022-09-29T04:05:38.509Z,6.22
2022-09-29T04:06:10.379Z,6.22
2022-09-29T04:06:40.174Z,6.22
2022-09-29T04:06:58.935Z,6.22
2022-09-29T04:07:30.297Z,6.11
2022-09-29T04:07:47.460Z,6.11
2022-09-29T04:08:18.413Z,6.00
2022-09-29T04:08:40.451Z,6.00
2022-09-29T04:09:06.572Z,5.88
2022-09-29T04:09:38.495Z,5.88
2022-09-29T04:10:10.891Z,5.88
2022-09-29T04:10:40.152Z,5.88
2022-09-29T04:10:58.493Z,5.77
2022-09-29T04:11:30.348Z,5.77
2022-09-29T04:11:47.376Z,5.77
2022-09-29T04:12:18.376Z,5.77
2022-09-29T04:12:40.138Z,5.77
2022-09-29T04:13:06.603Z,5.77
2022-09-29T04:13:38.456Z,5.77
2022-09-29T04:14:10.342Z,5.77
2022-09-29T04:14:40.213Z,5.77
2022-09-29T04:14:58.373Z,5.88
2022-09-29T04:15:30.493Z,5.88
2022-09-29T04:15:47.422Z,5.88
2022-09-29T04:16:18.608Z,5.88
2022-09-29T04:16:40.128Z,5.88
2022-09-29T04:17:06.365Z,5.88
2022-09-29T04:17:38.389Z,5.88
2022-09-29T04:18:10.444Z,5.88
2022-09-29T04:18:40.271Z,5.77
2022-09-29T04:18:58.370Z,5.77
2022-09-29T04:19:30.366Z,5.77
2022-09-29T04:19:47.388Z,5.77
2022-09-29T04:20:19.270Z,5.77
2022-09-29T04:20:40.110Z,5.77
2022-09-29T04:21:06.314Z,5.77
2022-09-29T04:21:38.509Z,5.77
2022-09-29T04:22:10.498Z,5.77
2022-09-29T04:22:40.593Z,5.77
2022-09-29T04:22:58.647Z,5.77
2022-09-29T04:23:30.367Z,5.77
2022-09-29T04:23:47.246Z,5.77
2022-09-29T04:24:18.677Z,5.77
2022-09-29T04:24:40.159Z,5.77
2022-09-29T04:25:06.368Z,5.77
2022-09-29T04:25:38.843Z,5.77
2022-09-29T04:26:10.658Z,5.77
2022-09-29T04:26:40.214Z,5.77
2022-09-29T04:26:58.601Z,5.77
2022-09-29T04:27:30.305Z,5.72
2022-09-29T04:27:47.591Z,5.72
2022-09-29T04:28:18.643Z,5.72
2022-09-29T04:28:40.255Z,5.72
2022-09-29T04:29:06.413Z,5.72
2022-09-29T04:29:38.520Z,5.61
2022-09-29T04:30:10.633Z,5.50
2022-09-29T04:30:40.218Z,5.50
2022-09-29T04:30:58.699Z,5.50
2022-09-29T04:31:30.369Z,5.50
2022-09-29T04:31:47.468Z,5.50
2022-09-29T04:32:18.404Z,5.50
2022-09-29T04:32:40.123Z,5.50
2022-09-29T04:33:06.454Z,5.38
2022-09-29T04:33:38.402Z,5.38
2022-09-29T04:34:10.307Z,5.38
2022-09-29T04:34:40.278Z,5.38
2022-09-29T04:34:58.658Z,5.38
2022-09-29T04:35:36.068Z,5.38
2022-09-29T04:36:02.266Z,5.72
2022-09-29T04:36:34.268Z,5.72
2022-09-29T04:37:06.505Z,5.72
2022-09-29T04:37:38.569Z,5.72
2022-09-29T04:38:10.292Z,5.50
2022-09-29T04:38:40.120Z,5.50
2022-09-29T04:38:58.418Z,5.50
2022-09-29T04:39:30.337Z,5.77
2022-09-29T04:39:47.453Z,5.77
2022-09-29T04:40:18.473Z,5.50
2022-09-29T04:40:40.181Z,5.77
2022-09-29T04:41:07.090Z,5.50
2022-09-29T04:41:38.403Z,5.38
2022-09-29T04:42:10.324Z,5.72
2022-09-29T04:42:40.147Z,5.72
2022-09-29T04:42:58.469Z,5.38
2022-09-29T04:43:30.610Z,5.38
2022-09-29T04:43:47.435Z,5.27
2022-09-29T04:44:18.345Z,5.61
2022-09-29T04:44:40.159Z,5.61
2022-09-29T04:45:06.445Z,5.61
2022-09-29T04:45:39.301Z,5.27
2022-09-29T04:46:10.459Z,5.61
2022-09-29T04:46:41.163Z,5.61
2022-09-29T04:46:58.376Z,5.50
2022-09-29T04:47:30.328Z,5.50
2022-09-29T04:47:47.403Z,5.50
2022-09-29T04:48:18.460Z,5.50
2022-09-29T04:48:40.175Z,5.38
2022-09-29T04:49:06.412Z,5.38
2022-09-29T04:49:38.427Z,5.38
2022-09-29T04:50:10.362Z,5.38
2022-09-29T04:50:40.945Z,5.27
2022-09-29T04:50:58.412Z,5.27
2022-09-29T04:51:30.318Z,5.27
2022-09-29T04:51:47.463Z,5.27
2022-09-29T04:52:18.874Z,5.27
2022-09-29T04:52:40.110Z,5.27
2022-09-29T04:53:06.378Z,5.27
2022-09-29T04:53:38.368Z,5.27
2022-09-29T04:54:10.377Z,5.27
2022-09-29T04:54:40.140Z,5.27
2022-09-29T04:54:58.341Z,5.27
2022-09-29T04:55:30.350Z,5.27
2022-09-29T04:55:49.357Z,5.27
2022-09-29T04:56:18.389Z,5.27
2022-09-29T04:56:40.134Z,5.27
2022-09-29T04:57:06.290Z,5.27
2022-09-29T04:57:38.482Z,5.22
2022-09-29T04:58:10.338Z,5.22
2022-09-29T04:58:40.258Z,5.22
2022-09-29T04:58:58.410Z,5.22
2022-09-29T04:59:30.344Z,5.22
2022-09-29T04:59:47.387Z,5.22
2022-09-29T05:00:18.313Z,5.22
2022-09-29T05:00:40.171Z,5.22
2022-09-29T05:01:06.527Z,5.22
2022-09-29T05:01:38.503Z,5.11
2022-09-29T05:02:10.367Z,5.11
2022-09-29T05:02:40.209Z,5.11
2022-09-29T05:02:58.531Z,5.11
2022-09-29T05:03:30.407Z,5.11
2022-09-29T05:03:47.464Z,5.11
2022-09-29T05:04:18.391Z,5.11
2022-09-29T05:04:40.187Z,5.11
2022-09-29T05:05:06.475Z,5.11
2022-09-29T05:05:39.661Z,5.11
2022-09-29T05:06:10.936Z,5.11
2022-09-29T05:06:40.126Z,5.11
2022-09-29T05:06:58.656Z,5.11
2022-09-29T05:07:30.925Z,5.11
2022-09-29T05:07:47.579Z,5.11
2022-09-29T05:08:18.706Z,5.11
2022-09-29T05:08:40.144Z,5.11
2022-09-29T05:09:06.694Z,5.11
2022-09-29T05:09:38.468Z,5.11
2022-09-29T05:10:10.402Z,5.11
2022-09-29T05:10:40.270Z,5.11
2022-09-29T05:10:58.368Z,5.11
2022-09-29T05:11:30.372Z,5.11
2022-09-29T05:11:47.477Z,5.00
2022-09-29T05:12:18.392Z,5.00
2022-09-29T05:12:44.103Z,5.00
2022-09-29T05:13:06.643Z,5.00
2022-09-29T05:13:38.364Z,5.00
2022-09-29T05:14:10.509Z,5.11
2022-09-29T05:14:40.386Z,5.11
2022-09-29T05:14:58.568Z,5.11
2022-09-29T05:15:30.440Z,5.11
2022-09-29T05:15:47.670Z,5.11
2022-09-29T05:16:19.380Z,5.11
2022-09-29T05:16:40.243Z,5.11
2022-09-29T05:17:06.404Z,5.00
2022-09-29T05:17:38.370Z,5.00
2022-09-29T05:18:10.354Z,5.00
2022-09-29T05:18:40.132Z,5.00
2022-09-29T05:18:58.341Z,4.88
2022-09-29T05:19:30.187Z,4.88
2022-09-29T05:19:47.439Z,4.88
2022-09-29T05:20:18.365Z,4.88
2022-09-29T05:20:45.567Z,4.88
2022-09-29T05:21:38.578Z,4.88
2022-09-29T05:22:10.487Z,4.88
2022-09-29T05:22:40.324Z,4.88
2022-09-29T05:22:59.733Z,4.77
2022-09-29T05:23:30.535Z,4.77
2022-09-29T05:23:47.620Z,4.77
2022-09-29T05:24:18.461Z,4.77
2022-09-29T05:24:40.415Z,4.77
2022-09-29T05:25:06.635Z,4.77
2022-09-29T05:25:38.590Z,4.72
2022-09-29T05:26:10.479Z,4.72
2022-09-29T05:26:40.311Z,4.72
2022-09-29T05:26:58.755Z,4.61
2022-09-29T05:27:30.513Z,4.61
2022-09-29T05:27:47.598Z,4.61
2022-09-29T05:28:18.724Z,4.50
2022-09-29T05:28:40.299Z,4.50
2022-09-29T05:29:06.606Z,4.50
2022-09-29T05:29:38.564Z,4.50
2022-09-29T05:30:10.892Z,4.50
2022-09-29T05:30:40.415Z,4.50
2022-09-29T05:30:58.624Z,4.50
2022-09-29T05:31:31.054Z,4.50
2022-09-29T05:31:48.320Z,4.50
2022-09-29T05:32:18.535Z,4.50
2022-09-29T05:32:40.329Z,4.50
2022-09-29T05:33:06.568Z,4.50
2022-09-29T05:33:38.513Z,4.50
2022-09-29T05:34:10.475Z,4.50
2022-09-29T05:34:40.357Z,4.50
2022-09-29T05:34:58.642Z,4.50
2022-09-29T05:35:31.486Z,4.50
2022-09-29T05:35:48.388Z,4.50
2022-09-29T05:36:18.689Z,4.50
2022-09-29T05:36:40.301Z,4.61
2022-09-29T05:37:06.397Z,4.61
2022-09-29T05:37:38.254Z,4.61
2022-09-29T05:38:10.657Z,4.61
2022-09-29T05:38:40.434Z,4.61
2022-09-29T05:38:58.711Z,4.72
2022-09-29T05:39:30.326Z,4.72
2022-09-29T05:39:47.654Z,4.72
2022-09-29T05:40:18.598Z,4.77
2022-09-29T05:40:40.429Z,4.77
2022-09-29T05:41:06.582Z,4.77
2022-09-29T05:41:40.198Z,4.77
2022-09-29T05:42:10.571Z,4.77
2022-09-29T05:42:40.266Z,4.77
2022-09-29T05:42:58.544Z,4.88
2022-09-29T05:43:30.787Z,4.88
2022-09-29T05:43:47.718Z,4.88
2022-09-29T05:44:18.535Z,4.88
2022-09-29T05:44:40.345Z,5.00
2022-09-29T05:45:07.149Z,5.00
2022-09-29T05:45:38.656Z,5.11
2022-09-29T05:46:10.557Z,5.11
2022-09-29T05:46:41.225Z,5.22
2022-09-29T05:46:58.688Z,5.22
2022-09-29T05:47:30.541Z,5.22
2022-09-29T05:47:47.613Z,5.22
2022-09-29T05:48:19.222Z,5.27
2022-09-29T05:48:40.403Z,5.27
2022-09-29T05:49:06.656Z,5.27
2022-09-29T05:49:38.571Z,5.27
2022-09-29T05:50:10.512Z,5.27
2022-09-29T05:50:40.409Z,5.27
2022-09-29T05:50:58.718Z,5.27
2022-09-29T05:51:30.509Z,5.38
2022-09-29T05:51:48.137Z,5.38
2022-09-29T05:52:18.684Z,5.38
2022-09-29T05:52:40.424Z,5.38
2022-09-29T05:53:06.740Z,5.38
2022-09-29T05:53:38.733Z,5.38
2022-09-29T05:54:10.583Z,5.38
2022-09-29T05:54:40.361Z,5.38
2022-09-29T05:54:58.698Z,5.38
2022-09-29T05:55:30.551Z,5.38
2022-09-29T05:55:47.745Z,5.38
2022-09-29T05:56:18.721Z,5.38
2022-09-29T05:56:44.478Z,5.38